sensor_id;sensor_type;location;lat;lon;timestamp;temperature;humidity
51982;DHT22;37998;53.416;6.730;2023-03-20T00:01:22;7.90;99.90
51982;DHT22;37998;53.416;6.730;2023-03-20T00:03:49;7.90;99.90
51982;DHT22;37998;53.416;6.730;2023-03-20T00:06:23;7.90;99.90
51982;DHT22;37998;53.416;6.730;2023-03-20T00:08:52;8.00;99.90
51982;DHT22;37998;53.416;6.730;2023-03-20T00:11:29;8.00;99.90
51982;DHT22;37998;53.416;6.730;2023-03-20T00:14:10;8.10;99.90
51982;DHT22;37998;53.416;6.730;2023-03-20T00:16:42;8.10;99.90
51982;DHT22;37998;53.416;6.730;2023-03-20T00:19:19;8.10;99.90
51982;DHT22;37998;53.416;6.730;2023-03-20T00:21:48;8.00;99.90
51982;DHT22;37998;53.416;6.730;2023-03-20T00:24:15;8.00;99.90
51982;DHT22;37998;53.416;6.730;2023-03-20T00:26:42;8.10;99.90
51982;DHT22;37998;53.416;6.730;2023-03-20T00:29:17;8.00;99.90
51982;DHT22;37998;53.416;6.730;2023-03-20T00:31:45;8.00;99.90
51982;DHT22;37998;53.416;6.730;2023-03-20T00:34:13;8.00;99.90
51982;DHT22;37998;53.416;6.730;2023-03-20T00:36:39;7.90;99.90
51982;DHT22;37998;53.416;6.730;2023-03-20T00:39:05;7.90;99.90
51982;DHT22;37998;53.416;6.730;2023-03-20T00:41:52;7.90;99.90
51982;DHT22;37998;53.416;6.730;2023-03-20T00:44:42;7.80;99.90
51982;DHT22;37998;53.416;6.730;2023-03-20T00:47:20;7.80;99.90
51982;DHT22;37998;53.416;6.730;2023-03-20T00:49:49;7.80;99.90
51982;DHT22;37998;53.416;6.730;2023-03-20T00:52:17;7.80;99.90
51982;DHT22;37998;53.416;6.730;2023-03-20T00:54:43;7.80;99.90
51982;DHT22;37998;53.416;6.730;2023-03-20T00:57:13;7.80;99.90
51982;DHT22;37998;53.416;6.730;2023-03-20T01:00:02;7.80;99.90
51982;DHT22;37998;53.416;6.730;2023-03-20T01:02:29;7.80;99.90
51982;DHT22;37998;53.416;6.730;2023-03-20T01:04:56;7.70;99.90
51982;DHT22;37998;53.416;6.730;2023-03-20T01:07:21;7.70;99.90
51982;DHT22;37998;53.416;6.730;2023-03-20T01:09:47;7.70;99.90
51982;DHT22;37998;53.416;6.730;2023-03-20T01:12:14;7.70;99.90
51982;DHT22;37998;53.416;6.730;2023-03-20T01:14:41;7.70;99.90
51982;DHT22;37998;53.416;6.730;2023-03-20T01:17:18;7.70;99.90
51982;DHT22;37998;53.416;6.730;2023-03-20T01:19:43;7.70;99.90
51982;DHT22;37998;53.416;6.730;2023-03-20T01:22:09;7.70;99.90
51982;DHT22;37998;53.416;6.730;2023-03-20T01:24:35;7.70;99.90
51982;DHT22;37998;53.416;6.730;2023-03-20T01:27:00;7.70;99.90
51982;DHT22;37998;53.416;6.730;2023-03-20T01:29:28;7.60;99.90
51982;DHT22;37998;53.416;6.730;2023-03-20T01:31:54;7.70;99.90
51982;DHT22;37998;53.416;6.730;2023-03-20T01:34:20;7.60;99.90
51982;DHT22;37998;53.416;6.730;2023-03-20T01:36:56;7.60;99.90
51982;DHT22;37998;53.416;6.730;2023-03-20T01:39:41;7.60;99.90
51982;DHT22;37998;53.416;6.730;2023-03-20T01:42:07;7.60;99.90
51982;DHT22;37998;53.416;6.730;2023-03-20T01:44:34;7.60;99.90
51982;DHT22;37998;53.416;6.730;2023-03-20T01:47:02;7.60;99.90
51982;DHT22;37998;53.416;6.730;2023-03-20T01:51:55;7.60;99.90
51982;DHT22;37998;53.416;6.730;2023-03-20T01:54:29;7.60;99.90
51982;DHT22;37998;53.416;6.730;2023-03-20T01:57:13;7.60;99.90
51982;DHT22;37998;53.416;6.730;2023-03-20T01:59:44;7.60;99.90
51982;DHT22;37998;53.416;6.730;2023-03-20T02:02:14;7.60;99.90
51982;DHT22;37998;53.416;6.730;2023-03-20T02:04:43;7.50;99.90
51982;DHT22;37998;53.416;6.730;2023-03-20T02:07:12;7.60;99.90
51982;DHT22;37998;53.416;6.730;2023-03-20T02:09:40;7.60;99.90
51982;DHT22;37998;53.416;6.730;2023-03-20T02:12:07;7.60;99.90
51982;DHT22;37998;53.416;6.730;2023-03-20T02:14:33;7.60;99.90
51982;DHT22;37998;53.416;6.730;2023-03-20T02:17:01;7.60;99.90
51982;DHT22;37998;53.416;6.730;2023-03-20T02:22:53;7.50;99.90
51982;DHT22;37998;53.416;6.730;2023-03-20T02:34:37;7.40;99.90
51982;DHT22;37998;53.416;6.730;2023-03-20T02:40:11;7.40;99.90
51982;DHT22;37998;53.416;6.730;2023-03-20T02:45:26;7.40;99.90
51982;DHT22;37998;53.416;6.730;2023-03-20T02:53:34;7.30;99.90
51982;DHT22;37998;53.416;6.730;2023-03-20T02:56:12;7.30;99.90
51982;DHT22;37998;53.416;6.730;2023-03-20T02:58:41;7.30;99.90
51982;DHT22;37998;53.416;6.730;2023-03-20T03:01:27;7.30;99.90
51982;DHT22;37998;53.416;6.730;2023-03-20T03:03:59;7.30;99.90
51982;DHT22;37998;53.416;6.730;2023-03-20T03:06:32;7.30;99.90
51982;DHT22;37998;53.416;6.730;2023-03-20T03:09:19;7.50;99.90
51982;DHT22;37998;53.416;6.730;2023-03-20T03:12:02;7.40;99.90
51982;DHT22;37998;53.416;6.730;2023-03-20T03:14:39;7.40;99.90
51982;DHT22;37998;53.416;6.730;2023-03-20T03:17:07;7.40;99.90
51982;DHT22;37998;53.416;6.730;2023-03-20T03:19:36;7.40;99.90
51982;DHT22;37998;53.416;6.730;2023-03-20T03:22:03;7.40;99.90
51982;DHT22;37998;53.416;6.730;2023-03-20T03:24:37;7.40;99.90
51982;DHT22;37998;53.416;6.730;2023-03-20T03:27:31;7.50;99.90
51982;DHT22;37998;53.416;6.730;2023-03-20T03:30:06;7.50;99.90
51982;DHT22;37998;53.416;6.730;2023-03-20T03:33:23;7.50;99.90
51982;DHT22;37998;53.416;6.730;2023-03-20T03:35:22;7.50;99.90
51982;DHT22;37998;53.416;6.730;2023-03-20T03:37:57;7.50;99.90
51982;DHT22;37998;53.416;6.730;2023-03-20T03:40:40;7.60;99.90
51982;DHT22;37998;53.416;6.730;2023-03-20T03:43:32;7.50;99.90
51982;DHT22;37998;53.416;6.730;2023-03-20T03:46:00;7.50;99.90
51982;DHT22;37998;53.416;6.730;2023-03-20T03:48:35;7.60;99.90
51982;DHT22;37998;53.416;6.730;2023-03-20T03:51:13;7.60;99.90
51982;DHT22;37998;53.416;6.730;2023-03-20T03:53:46;7.70;99.90
51982;DHT22;37998;53.416;6.730;2023-03-20T03:56:16;7.60;99.90
51982;DHT22;37998;53.416;6.730;2023-03-20T03:58:48;7.70;99.90
51982;DHT22;37998;53.416;6.730;2023-03-20T04:01:16;7.70;99.90
51982;DHT22;37998;53.416;6.730;2023-03-20T04:03:49;7.70;99.90
51982;DHT22;37998;53.416;6.730;2023-03-20T04:06:16;7.70;99.90
51982;DHT22;37998;53.416;6.730;2023-03-20T04:08:42;7.70;99.90
51982;DHT22;37998;53.416;6.730;2023-03-20T04:11:20;7.70;99.90
51982;DHT22;37998;53.416;6.730;2023-03-20T04:13:47;7.70;99.90
51982;DHT22;37998;53.416;6.730;2023-03-20T04:16:13;7.70;99.90
51982;DHT22;37998;53.416;6.730;2023-03-20T04:18:39;7.80;99.90
51982;DHT22;37998;53.416;6.730;2023-03-20T04:21:06;7.70;99.90
51982;DHT22;37998;53.416;6.730;2023-03-20T04:23:32;7.70;99.90
51982;DHT22;37998;53.416;6.730;2023-03-20T04:25:58;7.70;99.90
51982;DHT22;37998;53.416;6.730;2023-03-20T04:28:23;7.70;99.90
51982;DHT22;37998;53.416;6.730;2023-03-20T04:30:57;7.70;99.90
51982;DHT22;37998;53.416;6.730;2023-03-20T04:33:23;7.70;99.90
51982;DHT22;37998;53.416;6.730;2023-03-20T04:35:49;7.70;99.90
51982;DHT22;37998;53.416;6.730;2023-03-20T04:38:15;7.70;99.90
51982;DHT22;37998;53.416;6.730;2023-03-20T04:40:42;7.70;99.90
51982;DHT22;37998;53.416;6.730;2023-03-20T04:43:08;7.70;99.90
51982;DHT22;37998;53.416;6.730;2023-03-20T04:45:34;7.70;99.90
51982;DHT22;37998;53.416;6.730;2023-03-20T04:48:00;7.70;99.90
51982;DHT22;37998;53.416;6.730;2023-03-20T04:50:26;7.70;99.90
51982;DHT22;37998;53.416;6.730;2023-03-20T04:52:52;7.70;99.90
51982;DHT22;37998;53.416;6.730;2023-03-20T04:55:18;7.70;99.90
51982;DHT22;37998;53.416;6.730;2023-03-20T04:57:43;7.80;99.90
51982;DHT22;37998;53.416;6.730;2023-03-20T05:00:09;7.80;99.90
51982;DHT22;37998;53.416;6.730;2023-03-20T05:02:35;7.80;99.90
51982;DHT22;37998;53.416;6.730;2023-03-20T05:05:01;7.80;99.90
51982;DHT22;37998;53.416;6.730;2023-03-20T05:07:27;7.80;99.90
51982;DHT22;37998;53.416;6.730;2023-03-20T05:09:53;7.80;99.90
51982;DHT22;37998;53.416;6.730;2023-03-20T05:12:19;7.90;99.90
51982;DHT22;37998;53.416;6.730;2023-03-20T05:14:45;7.80;99.90
51982;DHT22;37998;53.416;6.730;2023-03-20T05:17:10;7.90;99.90
51982;DHT22;37998;53.416;6.730;2023-03-20T05:19:36;7.90;99.90
51982;DHT22;37998;53.416;6.730;2023-03-20T05:22:03;7.80;99.90
51982;DHT22;37998;53.416;6.730;2023-03-20T05:24:29;7.90;99.90
51982;DHT22;37998;53.416;6.730;2023-03-20T05:26:55;7.80;99.90
51982;DHT22;37998;53.416;6.730;2023-03-20T05:29:21;7.80;99.90
51982;DHT22;37998;53.416;6.730;2023-03-20T05:31:47;7.80;99.90
51982;DHT22;37998;53.416;6.730;2023-03-20T05:34:13;7.90;99.90
51982;DHT22;37998;53.416;6.730;2023-03-20T05:36:38;7.80;99.90
51982;DHT22;37998;53.416;6.730;2023-03-20T05:39:04;7.90;99.90
51982;DHT22;37998;53.416;6.730;2023-03-20T05:41:30;7.80;99.90
51982;DHT22;37998;53.416;6.730;2023-03-20T05:43:56;7.90;99.90
51982;DHT22;37998;53.416;6.730;2023-03-20T05:46:22;7.80;99.90
51982;DHT22;37998;53.416;6.730;2023-03-20T05:48:48;7.90;99.90
51982;DHT22;37998;53.416;6.730;2023-03-20T05:51:13;7.80;99.90
51982;DHT22;37998;53.416;6.730;2023-03-20T05:53:39;7.90;99.90
51982;DHT22;37998;53.416;6.730;2023-03-20T05:56:05;7.80;99.90
51982;DHT22;37998;53.416;6.730;2023-03-20T05:58:31;7.90;99.90
51982;DHT22;37998;53.416;6.730;2023-03-20T06:00:57;7.90;99.90
51982;DHT22;37998;53.416;6.730;2023-03-20T06:03:23;7.90;99.90
51982;DHT22;37998;53.416;6.730;2023-03-20T06:05:49;7.90;99.90
51982;DHT22;37998;53.416;6.730;2023-03-20T06:08:14;7.90;99.90
51982;DHT22;37998;53.416;6.730;2023-03-20T06:10:40;7.90;99.90
51982;DHT22;37998;53.416;6.730;2023-03-20T06:13:06;7.90;99.90
51982;DHT22;37998;53.416;6.730;2023-03-20T06:15:32;7.90;99.90
51982;DHT22;37998;53.416;6.730;2023-03-20T06:17:58;7.90;99.90
51982;DHT22;37998;53.416;6.730;2023-03-20T06:20:24;7.90;99.90
51982;DHT22;37998;53.416;6.730;2023-03-20T06:22:50;7.80;99.90
51982;DHT22;37998;53.416;6.730;2023-03-20T06:25:16;7.90;99.90
51982;DHT22;37998;53.416;6.730;2023-03-20T06:27:42;7.90;99.90
51982;DHT22;37998;53.416;6.730;2023-03-20T06:30:08;7.90;99.90
51982;DHT22;37998;53.416;6.730;2023-03-20T06:32:34;7.90;99.90
51982;DHT22;37998;53.416;6.730;2023-03-20T06:35:00;7.90;99.90
51982;DHT22;37998;53.416;6.730;2023-03-20T06:37:26;7.90;99.90
51982;DHT22;37998;53.416;6.730;2023-03-20T06:39:52;7.90;99.90
51982;DHT22;37998;53.416;6.730;2023-03-20T06:42:17;8.00;99.90
51982;DHT22;37998;53.416;6.730;2023-03-20T06:44:43;8.00;99.90
51982;DHT22;37998;53.416;6.730;2023-03-20T06:47:09;7.90;99.90
51982;DHT22;37998;53.416;6.730;2023-03-20T06:49:34;7.90;99.90
51982;DHT22;37998;53.416;6.730;2023-03-20T06:52:00;7.80;99.90
51982;DHT22;37998;53.416;6.730;2023-03-20T06:54:26;7.90;99.90
51982;DHT22;37998;53.416;6.730;2023-03-20T06:56:52;7.90;99.90
51982;DHT22;37998;53.416;6.730;2023-03-20T06:59:17;8.00;99.90
51982;DHT22;37998;53.416;6.730;2023-03-20T07:01:43;7.90;99.90
51982;DHT22;37998;53.416;6.730;2023-03-20T07:04:09;7.90;99.90
51982;DHT22;37998;53.416;6.730;2023-03-20T07:06:34;7.90;99.90
51982;DHT22;37998;53.416;6.730;2023-03-20T07:09:01;7.90;99.90
51982;DHT22;37998;53.416;6.730;2023-03-20T07:11:26;8.00;99.90
51982;DHT22;37998;53.416;6.730;2023-03-20T07:13:53;8.00;99.90
51982;DHT22;37998;53.416;6.730;2023-03-20T07:16:18;8.00;99.90
51982;DHT22;37998;53.416;6.730;2023-03-20T07:18:44;8.00;99.90
51982;DHT22;37998;53.416;6.730;2023-03-20T07:21:16;8.00;99.90
51982;DHT22;37998;53.416;6.730;2023-03-20T07:23:43;8.10;99.90
51982;DHT22;37998;53.416;6.730;2023-03-20T07:26:09;8.10;99.90
51982;DHT22;37998;53.416;6.730;2023-03-20T07:28:35;8.00;99.90
51982;DHT22;37998;53.416;6.730;2023-03-20T07:31:00;8.20;99.90
51982;DHT22;37998;53.416;6.730;2023-03-20T07:33:26;8.20;99.90
51982;DHT22;37998;53.416;6.730;2023-03-20T07:35:54;8.20;99.90
51982;DHT22;37998;53.416;6.730;2023-03-20T07:38:21;8.20;99.90
51982;DHT22;37998;53.416;6.730;2023-03-20T07:40:46;8.30;99.90
51982;DHT22;37998;53.416;6.730;2023-03-20T07:43:14;8.30;99.90
51982;DHT22;37998;53.416;6.730;2023-03-20T07:45:40;8.30;99.90
51982;DHT22;37998;53.416;6.730;2023-03-20T07:48:06;8.30;99.90
51982;DHT22;37998;53.416;6.730;2023-03-20T07:50:32;8.40;99.90
51982;DHT22;37998;53.416;6.730;2023-03-20T07:52:58;8.40;99.90
51982;DHT22;37998;53.416;6.730;2023-03-20T07:55:23;8.50;99.90
51982;DHT22;37998;53.416;6.730;2023-03-20T07:57:49;8.50;99.90
51982;DHT22;37998;53.416;6.730;2023-03-20T08:00:16;8.50;99.90
51982;DHT22;37998;53.416;6.730;2023-03-20T08:02:42;8.50;99.90
51982;DHT22;37998;53.416;6.730;2023-03-20T08:05:08;8.70;99.90
51982;DHT22;37998;53.416;6.730;2023-03-20T08:07:34;8.50;99.90
51982;DHT22;37998;53.416;6.730;2023-03-20T08:10:00;8.60;99.90
51982;DHT22;37998;53.416;6.730;2023-03-20T08:12:25;8.50;99.90
51982;DHT22;37998;53.416;6.730;2023-03-20T08:14:51;8.60;99.90
51982;DHT22;37998;53.416;6.730;2023-03-20T08:17:18;8.60;99.90
51982;DHT22;37998;53.416;6.730;2023-03-20T08:19:44;8.60;99.90
51982;DHT22;37998;53.416;6.730;2023-03-20T08:22:10;8.70;99.90
51982;DHT22;37998;53.416;6.730;2023-03-20T08:24:36;8.70;99.90
51982;DHT22;37998;53.416;6.730;2023-03-20T08:27:02;8.80;99.90
51982;DHT22;37998;53.416;6.730;2023-03-20T08:29:27;8.80;99.90
51982;DHT22;37998;53.416;6.730;2023-03-20T08:31:53;8.80;99.90
51982;DHT22;37998;53.416;6.730;2023-03-20T08:34:20;8.90;99.90
51982;DHT22;37998;53.416;6.730;2023-03-20T08:36:46;8.90;99.90
51982;DHT22;37998;53.416;6.730;2023-03-20T08:39:11;8.90;99.90
51982;DHT22;37998;53.416;6.730;2023-03-20T08:41:37;9.00;99.90
51982;DHT22;37998;53.416;6.730;2023-03-20T08:44:04;9.00;99.90
51982;DHT22;37998;53.416;6.730;2023-03-20T08:46:30;9.00;99.90
51982;DHT22;37998;53.416;6.730;2023-03-20T08:48:56;9.00;99.90
51982;DHT22;37998;53.416;6.730;2023-03-20T08:51:24;9.00;99.90
51982;DHT22;37998;53.416;6.730;2023-03-20T08:53:49;9.00;99.90
51982;DHT22;37998;53.416;6.730;2023-03-20T08:56:15;9.00;99.90
51982;DHT22;37998;53.416;6.730;2023-03-20T08:58:41;9.00;99.90
51982;DHT22;37998;53.416;6.730;2023-03-20T09:01:08;9.00;99.90
51982;DHT22;37998;53.416;6.730;2023-03-20T09:03:34;9.20;99.90
51982;DHT22;37998;53.416;6.730;2023-03-20T09:06:04;9.10;99.90
51982;DHT22;37998;53.416;6.730;2023-03-20T09:08:30;9.00;99.90
51982;DHT22;37998;53.416;6.730;2023-03-20T09:10:56;9.00;99.90
51982;DHT22;37998;53.416;6.730;2023-03-20T09:13:22;9.00;99.90
51982;DHT22;37998;53.416;6.730;2023-03-20T09:15:50;9.00;99.90
51982;DHT22;37998;53.416;6.730;2023-03-20T09:18:16;9.00;99.90
51982;DHT22;37998;53.416;6.730;2023-03-20T09:20:42;9.10;99.90
51982;DHT22;37998;53.416;6.730;2023-03-20T09:23:07;9.20;99.90
51982;DHT22;37998;53.416;6.730;2023-03-20T09:25:33;9.20;99.90
51982;DHT22;37998;53.416;6.730;2023-03-20T09:27:59;9.20;99.90
51982;DHT22;37998;53.416;6.730;2023-03-20T09:30:24;9.30;99.90
51982;DHT22;37998;53.416;6.730;2023-03-20T09:32:50;9.50;99.90
51982;DHT22;37998;53.416;6.730;2023-03-20T09:35:16;9.50;99.90
51982;DHT22;37998;53.416;6.730;2023-03-20T09:37:43;9.50;99.90
51982;DHT22;37998;53.416;6.730;2023-03-20T09:40:52;9.50;99.90
51982;DHT22;37998;53.416;6.730;2023-03-20T09:43:33;9.50;99.90
51982;DHT22;37998;53.416;6.730;2023-03-20T09:51:50;9.70;99.90
51982;DHT22;37998;53.416;6.730;2023-03-20T09:54:32;9.80;99.90
51982;DHT22;37998;53.416;6.730;2023-03-20T09:57:02;9.80;99.90
51982;DHT22;37998;53.416;6.730;2023-03-20T09:59:29;9.80;99.90
51982;DHT22;37998;53.416;6.730;2023-03-20T10:02:22;9.80;99.90
51982;DHT22;37998;53.416;6.730;2023-03-20T10:04:51;9.90;99.90
51982;DHT22;37998;53.416;6.730;2023-03-20T10:07:18;10.00;99.90
51982;DHT22;37998;53.416;6.730;2023-03-20T10:09:44;10.10;99.90
51982;DHT22;37998;53.416;6.730;2023-03-20T10:17:47;10.20;99.90
51982;DHT22;37998;53.416;6.730;2023-03-20T10:23:01;10.30;99.90
51982;DHT22;37998;53.416;6.730;2023-03-20T10:25:34;10.30;99.90
51982;DHT22;37998;53.416;6.730;2023-03-20T10:28:12;10.40;99.90
51982;DHT22;37998;53.416;6.730;2023-03-20T10:33:11;10.60;99.90
51982;DHT22;37998;53.416;6.730;2023-03-20T10:41:21;10.60;99.90
51982;DHT22;37998;53.416;6.730;2023-03-20T10:43:50;10.70;99.90
51982;DHT22;37998;53.416;6.730;2023-03-20T10:46:28;10.70;99.90
51982;DHT22;37998;53.416;6.730;2023-03-20T10:49:18;10.80;99.90
51982;DHT22;37998;53.416;6.730;2023-03-20T10:51:51;10.70;99.90
51982;DHT22;37998;53.416;6.730;2023-03-20T10:54:29;10.70;99.90
51982;DHT22;37998;53.416;6.730;2023-03-20T10:56:57;10.70;99.90
51982;DHT22;37998;53.416;6.730;2023-03-20T10:59:51;10.70;99.90
51982;DHT22;37998;53.416;6.730;2023-03-20T11:02:19;10.80;99.90
51982;DHT22;37998;53.416;6.730;2023-03-20T11:04:47;10.70;99.90
51982;DHT22;37998;53.416;6.730;2023-03-20T11:07:26;10.70;99.90
51982;DHT22;37998;53.416;6.730;2023-03-20T11:12:42;10.70;99.90
51982;DHT22;37998;53.416;6.730;2023-03-20T11:15:30;10.60;99.90
51982;DHT22;37998;53.416;6.730;2023-03-20T11:18:01;10.70;99.90
51982;DHT22;37998;53.416;6.730;2023-03-20T11:20:33;10.70;99.90
51982;DHT22;37998;53.416;6.730;2023-03-20T11:23:05;10.70;99.90
51982;DHT22;37998;53.416;6.730;2023-03-20T11:25:49;10.70;99.90
51982;DHT22;37998;53.416;6.730;2023-03-20T11:30:45;10.60;99.90
51982;DHT22;37998;53.416;6.730;2023-03-20T11:33:12;10.50;99.90
51982;DHT22;37998;53.416;6.730;2023-03-20T11:35:44;10.50;99.90
51982;DHT22;37998;53.416;6.730;2023-03-20T11:38:19;10.50;99.90
51982;DHT22;37998;53.416;6.730;2023-03-20T11:40:46;10.40;99.90
51982;DHT22;37998;53.416;6.730;2023-03-20T11:43:22;10.40;99.90
51982;DHT22;37998;53.416;6.730;2023-03-20T11:45:54;10.40;99.90
51982;DHT22;37998;53.416;6.730;2023-03-20T11:48:23;10.40;99.90
51982;DHT22;37998;53.416;6.730;2023-03-20T11:51:10;10.30;99.90
51982;DHT22;37998;53.416;6.730;2023-03-20T11:54:02;10.30;99.90
51982;DHT22;37998;53.416;6.730;2023-03-20T11:56:31;10.30;99.90
51982;DHT22;37998;53.416;6.730;2023-03-20T11:59:13;10.30;99.90
51982;DHT22;37998;53.416;6.730;2023-03-20T12:01:42;10.30;99.90
51982;DHT22;37998;53.416;6.730;2023-03-20T12:09:27;10.30;99.90
51982;DHT22;37998;53.416;6.730;2023-03-20T12:15:00;10.30;99.90
51982;DHT22;37998;53.416;6.730;2023-03-20T12:17:34;10.30;99.90
51982;DHT22;37998;53.416;6.730;2023-03-20T12:23:01;10.20;99.90
51982;DHT22;37998;53.416;6.730;2023-03-20T12:25:46;10.10;99.90
51982;DHT22;37998;53.416;6.730;2023-03-20T12:34:06;9.80;99.90
51982;DHT22;37998;53.416;6.730;2023-03-20T12:36:44;9.70;99.90
51982;DHT22;37998;53.416;6.730;2023-03-20T12:39:16;9.70;99.90
51982;DHT22;37998;53.416;6.730;2023-03-20T12:41:56;9.70;99.90
51982;DHT22;37998;53.416;6.730;2023-03-20T12:44:44;9.60;99.90
51982;DHT22;37998;53.416;6.730;2023-03-20T12:50:06;9.40;99.90
51982;DHT22;37998;53.416;6.730;2023-03-20T13:01:31;9.30;99.90
51982;DHT22;37998;53.416;6.730;2023-03-20T13:04:09;9.30;99.90
51982;DHT22;37998;53.416;6.730;2023-03-20T13:06:54;9.30;99.90
51982;DHT22;37998;53.416;6.730;2023-03-20T13:20:38;9.10;99.90
51982;DHT22;37998;53.416;6.730;2023-03-20T13:39:26;9.00;99.90
51982;DHT22;37998;53.416;6.730;2023-03-20T13:41:54;8.90;99.90
51982;DHT22;37998;53.416;6.730;2023-03-20T13:44:22;8.90;99.90
51982;DHT22;37998;53.416;6.730;2023-03-20T13:46:57;8.90;99.90
51982;DHT22;37998;53.416;6.730;2023-03-20T13:49:38;8.80;99.90
51982;DHT22;37998;53.416;6.730;2023-03-20T13:52:11;8.90;99.90
51982;DHT22;37998;53.416;6.730;2023-03-20T14:03:38;8.80;99.90
51982;DHT22;37998;53.416;6.730;2023-03-20T14:08:55;8.80;99.90
51982;DHT22;37998;53.416;6.730;2023-03-20T14:14:24;8.90;99.90
51982;DHT22;37998;53.416;6.730;2023-03-20T14:16:47;8.90;99.90
51982;DHT22;37998;53.416;6.730;2023-03-20T14:19:20;8.80;99.90
51982;DHT22;37998;53.416;6.730;2023-03-20T14:21:47;8.80;99.90
51982;DHT22;37998;53.416;6.730;2023-03-20T14:24:14;8.80;99.90
51982;DHT22;37998;53.416;6.730;2023-03-20T14:26:42;8.70;99.90
51982;DHT22;37998;53.416;6.730;2023-03-20T14:31:38;8.70;99.90
51982;DHT22;37998;53.416;6.730;2023-03-20T14:34:13;8.70;99.90
51982;DHT22;37998;53.416;6.730;2023-03-20T14:37:01;8.80;99.90
51982;DHT22;37998;53.416;6.730;2023-03-20T14:39:42;8.80;99.90
51982;DHT22;37998;53.416;6.730;2023-03-20T14:50:35;8.70;99.90
51982;DHT22;37998;53.416;6.730;2023-03-20T14:53:13;8.70;99.90
51982;DHT22;37998;53.416;6.730;2023-03-20T15:03:40;8.70;99.90
51982;DHT22;37998;53.416;6.730;2023-03-20T15:06:06;8.80;99.90
51982;DHT22;37998;53.416;6.730;2023-03-20T15:08:49;8.70;99.90
51982;DHT22;37998;53.416;6.730;2023-03-20T15:11:15;8.70;99.90
51982;DHT22;37998;53.416;6.730;2023-03-20T15:13:42;8.70;99.90
51982;DHT22;37998;53.416;6.730;2023-03-20T15:16:13;8.70;99.90
51982;DHT22;37998;53.416;6.730;2023-03-20T15:18:46;8.60;99.90
51982;DHT22;37998;53.416;6.730;2023-03-20T15:21:20;8.60;99.90
51982;DHT22;37998;53.416;6.730;2023-03-20T15:23:47;8.60;99.90
51982;DHT22;37998;53.416;6.730;2023-03-20T15:26:14;8.60;99.90
51982;DHT22;37998;53.416;6.730;2023-03-20T15:28:42;8.60;99.90
51982;DHT22;37998;53.416;6.730;2023-03-20T15:31:24;8.60;99.90
51982;DHT22;37998;53.416;6.730;2023-03-20T15:33:50;8.60;99.90
51982;DHT22;37998;53.416;6.730;2023-03-20T15:36:19;8.60;99.90
51982;DHT22;37998;53.416;6.730;2023-03-20T15:38:46;8.60;99.90
51982;DHT22;37998;53.416;6.730;2023-03-20T15:41:33;8.60;99.90
51982;DHT22;37998;53.416;6.730;2023-03-20T15:46:33;8.50;99.90
51982;DHT22;37998;53.416;6.730;2023-03-20T15:48:59;8.60;99.90
51982;DHT22;37998;53.416;6.730;2023-03-20T15:51:26;8.60;99.90
51982;DHT22;37998;53.416;6.730;2023-03-20T15:53:52;8.60;99.90
51982;DHT22;37998;53.416;6.730;2023-03-20T15:56:18;8.60;99.90
51982;DHT22;37998;53.416;6.730;2023-03-20T15:58:50;8.50;99.90
51982;DHT22;37998;53.416;6.730;2023-03-20T16:01:22;8.50;99.90
51982;DHT22;37998;53.416;6.730;2023-03-20T16:03:49;8.50;99.90
51982;DHT22;37998;53.416;6.730;2023-03-20T16:06:19;8.60;99.90
51982;DHT22;37998;53.416;6.730;2023-03-20T16:08:58;8.50;99.90
51982;DHT22;37998;53.416;6.730;2023-03-20T16:11:35;8.50;99.90
51982;DHT22;37998;53.416;6.730;2023-03-20T16:14:01;8.60;99.90
51982;DHT22;37998;53.416;6.730;2023-03-20T16:16:27;8.50;99.90
51982;DHT22;37998;53.416;6.730;2023-03-20T16:18:58;8.50;99.90
51982;DHT22;37998;53.416;6.730;2023-03-20T16:21:28;9.50;99.90
51982;DHT22;37998;53.416;6.730;2023-03-20T16:23:58;8.50;99.90
51982;DHT22;37998;53.416;6.730;2023-03-20T16:26:25;8.50;99.90
51982;DHT22;37998;53.416;6.730;2023-03-20T16:28:55;8.50;99.90
51982;DHT22;37998;53.416;6.730;2023-03-20T16:31:27;8.50;99.90
51982;DHT22;37998;53.416;6.730;2023-03-20T16:34:05;8.60;99.90
51982;DHT22;37998;53.416;6.730;2023-03-20T16:36:36;8.60;99.90
51982;DHT22;37998;53.416;6.730;2023-03-20T16:39:08;8.50;99.90
51982;DHT22;37998;53.416;6.730;2023-03-20T16:41:38;8.60;99.90
51982;DHT22;37998;53.416;6.730;2023-03-20T16:44:09;8.60;99.90
51982;DHT22;37998;53.416;6.730;2023-03-20T16:46:36;8.60;99.90
51982;DHT22;37998;53.416;6.730;2023-03-20T16:51:58;8.60;99.90
51982;DHT22;37998;53.416;6.730;2023-03-20T16:54:28;8.60;99.90
51982;DHT22;37998;53.416;6.730;2023-03-20T16:56:56;8.60;99.90
51982;DHT22;37998;53.416;6.730;2023-03-20T16:59:23;8.60;99.90
51982;DHT22;37998;53.416;6.730;2023-03-20T17:01:50;8.60;99.90
51982;DHT22;37998;53.416;6.730;2023-03-20T17:04:32;8.60;99.90
51982;DHT22;37998;53.416;6.730;2023-03-20T17:07:06;8.60;99.90
51982;DHT22;37998;53.416;6.730;2023-03-20T17:09:34;8.60;99.90
51982;DHT22;37998;53.416;6.730;2023-03-20T17:14:28;8.60;99.90
51982;DHT22;37998;53.416;6.730;2023-03-20T17:16:54;8.60;99.90
51982;DHT22;37998;53.416;6.730;2023-03-20T17:19:22;8.60;99.90
51982;DHT22;37998;53.416;6.730;2023-03-20T17:21:48;8.60;99.90
51982;DHT22;37998;53.416;6.730;2023-03-20T17:24:15;8.70;99.90
51982;DHT22;37998;53.416;6.730;2023-03-20T17:26:43;8.60;99.90
51982;DHT22;37998;53.416;6.730;2023-03-20T17:29:10;8.60;99.90
51982;DHT22;37998;53.416;6.730;2023-03-20T17:31:36;8.70;99.90
51982;DHT22;37998;53.416;6.730;2023-03-20T17:34:02;8.70;99.90
51982;DHT22;37998;53.416;6.730;2023-03-20T17:36:32;8.70;99.90
51982;DHT22;37998;53.416;6.730;2023-03-20T17:38:59;8.60;99.90
51982;DHT22;37998;53.416;6.730;2023-03-20T17:41:26;8.70;99.90
51982;DHT22;37998;53.416;6.730;2023-03-20T17:43:52;8.70;99.90
51982;DHT22;37998;53.416;6.730;2023-03-20T17:46:26;8.70;99.90
51982;DHT22;37998;53.416;6.730;2023-03-20T17:49:13;8.70;99.90
51982;DHT22;37998;53.416;6.730;2023-03-20T17:51:41;8.70;99.90
51982;DHT22;37998;53.416;6.730;2023-03-20T17:54:06;8.70;99.90
51982;DHT22;37998;53.416;6.730;2023-03-20T17:56:32;8.70;99.90
51982;DHT22;37998;53.416;6.730;2023-03-20T17:58:59;8.70;99.90
51982;DHT22;37998;53.416;6.730;2023-03-20T18:01:25;8.70;99.90
51982;DHT22;37998;53.416;6.730;2023-03-20T18:03:51;8.70;99.90
51982;DHT22;37998;53.416;6.730;2023-03-20T18:06:26;8.70;99.90
51982;DHT22;37998;53.416;6.730;2023-03-20T18:08:53;8.70;99.90
51982;DHT22;37998;53.416;6.730;2023-03-20T18:11:19;8.70;99.90
51982;DHT22;37998;53.416;6.730;2023-03-20T18:13:45;8.70;99.90
51982;DHT22;37998;53.416;6.730;2023-03-20T18:16:17;8.70;99.90
51982;DHT22;37998;53.416;6.730;2023-03-20T18:18:44;8.70;99.90
51982;DHT22;37998;53.416;6.730;2023-03-20T18:21:11;8.80;99.90
51982;DHT22;37998;53.416;6.730;2023-03-20T18:23:37;8.70;99.90
51982;DHT22;37998;53.416;6.730;2023-03-20T18:26:03;8.80;99.90
51982;DHT22;37998;53.416;6.730;2023-03-20T18:28:29;8.80;99.90
51982;DHT22;37998;53.416;6.730;2023-03-20T18:30:56;8.80;99.90
51982;DHT22;37998;53.416;6.730;2023-03-20T18:33:22;8.80;99.90